Aérodrome :
LOGIN :

S'inscrire | Disclaimer

   EN    FR    IT 

 










Légende :    VFR   VFR Marginal   IFR   IFR Intensif   IFR Très Intensif
Visi : 
Plafond : 
>= 8 km
>= 3000ft
5 à 8 km
1000 à 3000 ft
1500m à 5 km
500 à 1000 ft
800 à 1500m
200 à 500 ft
< 800m
< 200 ft
Symboles :   Orages  Brouillard  Fortes neiges  Fortes précipitations  Vent > 20 kt
SIGMETs :   Divers  Orages  Givrage  Turbulence  Onde Orograph.  Cendres Volcan.







- Altitude de l'aérodrome : 499 ft
- Code IATA : TLS
- Voir les cartes d'approche


LFBO - Toulouse / Blagnac

DERNIER METAR :
  • 221430Z AUTO 28012KT 250V310 8000 FEW044 BKN052 OVC062 04/M02 Q1010 NOSIG

METARs EXPIRÉS :
  • 221400Z AUTO 27012KT 7000 BKN046 BKN054 04/M02 Q1010 NOSIG
  • 221330Z AUTO 27013KT 8000 FEW020 OVC046 03/M02 Q1010 NOSIG
  • 221300Z AUTO 27014KT 7000 BKN021 BKN028 OVC043 02/M03 Q1010 NOSIG
  • 221230Z AUTO 28014KT 7000 BKN021 OVC028 02/M03 Q1011 NOSIG
  • 221200Z AUTO 29013KT 8000 BKN020 OVC027 02/M03 Q1011 NOSIG
  • 221130Z AUTO 29012KT 7000 OVC019 02/M03 Q1011 NOSIG

TAF TAF LFBO
Valide du 22 à 12h jusqu'au 23 à 18h UTC


221100Z 2212/2318 28012KT 7000 BKN020
BECMG 2219/2221 CAVOK
ATIS : +33 5 62 74 66 36
Pas de NOTAMs connus pour ce terrain.
1 SIGMET publié pour la FIR Bordeaux (LFBB) :
 
Turbulence forte
LFBB SIGMET 4 VALID 221100/221500 LFPW
LFBB BORDEAUX FIR/UIR SEV TURB FCST E OF LINE N4230 E00030 - N4715 E00145 FL160/260 MOV W 5KT NC=



MET'MAP, la Météo Aéronautique d'un coup d'oeil ! - Copyright ORBIFLY Décembre 2007 - Disclaimer

ORBIFLY MET'MAP TEAM :

Programmation & Développement : Alexandra Zaïnal
Conception & Développement : Baudouin d'Aumeries
Co-Programmation & Développement : Marc-Olivier Méhu
Soutien technique & logistique : Manuel Goepfert

Contact : metmap@orbifly.com




SOURCES & CREDITS :

   NOAA